KTYR/TYR METAR and TAF weather

Enter ICAO airport designator
Station Type Date Time Source
KTYR METAR 2018/12/11 22:53 UTC NOAA

KTYR 112253Z 19012KT 10SM CLR 14/01 A3020 RMK AO2 SLP227 T01390006


Station Type Date Time Source
KTYR Decoded METAR 2018/12/11 22:53 UTC NOAA

TYLER POUNDS FIELDS, TX, United States (KTYR) 32-21N 095-24W 165M
Dec 11, 2018 - 05:53 PM EST / 2018.12.11 2253 UTC
Wind: from the S (190 degrees) at 14 MPH (12 KT):0
Visibility: 10 mile(s):0
Sky conditions: clear
Temperature: 57.0 F (13.9 C)
Dew Point: 33.1 F (0.6 C)
Relative Humidity: 40%
Pressure (altimeter): 30.2 in. Hg (1022 hPa)
ob: KTYR 112253Z 19012KT 10SM CLR 14/01 A3020 RMK AO2 SLP227 T01390006
cycle: 23

Station Type Date Time Source
KTYR TAF 2018/12/11 18:27 UTC NOAA

TAF KTYR 111724Z 1118/1218 20012KT P6SM SCT300
FM120600 18012KT P6SM BKN100
FM121200 18012KT P6SM OVC050


Example: see airport list